Time;durP1;ratioP1;P1;durP2;ratioP2;P2;SDS_P1;SDS_P2;PMS_P1;PMS_P2;Temp;Humidity;BMP_temperature;BMP_pressure;BME280_temperature;BME280_humidity;BME280_pressure;Samples;Min_cycle;Max_cycle;Signal;HPM_P1;HPM_P2
2022/04/11 00:02:13;;;;;;;16.10;8.90;;;-0.20;99.90;;;;;;5011343;28;20041;-83
2022/04/11 00:04:39;;;;;;;16.30;9.40;;;-0.20;99.90;;;;;;5012509;28;20104;-83
2022/04/11 00:07:05;;;;;;;16.20;8.97;;;-0.30;99.90;;;;;;5028731;28;20590;-83
2022/04/11 00:09:30;;;;;;;19.17;8.67;;;-0.20;99.90;;;;;;5014018;28;20041;-83
2022/04/11 00:11:56;;;;;;;16.07;8.30;;;-0.20;99.90;;;;;;5027219;28;20399;-78
2022/04/11 00:14:23;;;;;;;17.20;7.73;;;-0.20;99.90;;;;;;5026705;28;20068;-78
2022/04/11 00:16:49;;;;;;;14.93;8.23;;;-0.20;99.90;;;;;;5012754;28;20060;-78
2022/04/11 00:19:15;;;;;;;15.03;7.90;;;-0.30;99.90;;;;;;5032603;28;20034;-78
2022/04/11 00:21:41;;;;;;;12.67;7.70;;;-0.30;99.90;;;;;;5031405;28;20411;-78
2022/04/11 00:24:07;;;;;;;11.60;7.27;;;-0.60;99.90;;;;;;5032815;28;20036;-78
2022/04/11 00:26:33;;;;;;;14.17;7.63;;;-0.40;99.90;;;;;;5015485;28;20099;-78
2022/04/11 00:28:58;;;;;;;14.53;7.70;;;-0.40;99.90;;;;;;5014690;28;20033;-79
2022/04/11 00:31:24;;;;;;;13.23;7.33;;;-0.50;99.90;;;;;;5029610;28;20501;-78
2022/04/11 00:33:50;;;;;;;14.23;7.83;;;-0.40;99.90;;;;;;5030890;28;20057;-78
2022/04/11 00:36:16;;;;;;;16.73;7.60;;;-0.40;99.90;;;;;;5013796;28;20041;-78
2022/04/11 00:38:41;;;;;;;14.57;7.17;;;-0.40;99.90;;;;;;5027961;28;20049;-78
2022/04/11 00:41:07;;;;;;;12.93;7.50;;;-0.50;99.90;;;;;;5029845;28;20511;-79
2022/04/11 00:43:34;;;;;;;14.13;7.50;;;-0.50;99.90;;;;;;5013421;28;20052;-78
2022/04/11 00:46:00;;;;;;;14.57;7.40;;;-0.40;99.90;;;;;;5032658;28;20047;-83
2022/04/11 00:48:26;;;;;;;14.10;6.57;;;-0.40;99.90;;;;;;5032395;28;20073;-83
2022/04/11 00:50:55;;;;;;;14.23;6.80;;;-0.40;99.90;;;;;;5026931;28;20120;-83
2022/04/11 00:53:22;;;;;;;13.63;6.93;;;-0.40;99.90;;;;;;5028643;28;20476;-83
2022/04/11 00:55:49;;;;;;;19.30;7.30;;;-0.50;99.90;;;;;;5012297;28;20045;-83
2022/04/11 00:58:16;;;;;;;12.10;7.07;;;-0.50;99.90;;;;;;4994630;28;20037;-83
2022/04/11 01:00:42;;;;;;;11.10;6.90;;;-0.50;99.90;;;;;;5012133;28;20045;-83
2022/04/11 01:03:08;;;;;;;12.57;6.40;;;-0.50;99.90;;;;;;5012218;28;20041;-83
2022/04/11 01:05:34;;;;;;;13.87;7.17;;;-0.70;99.90;;;;;;4987501;28;20476;-83
2022/04/11 01:08:06;;;;;;;12.83;6.63;;;-0.60;99.90;;;;;;5013315;28;20029;-83
2022/04/11 01:10:32;;;;;;;13.77;6.73;;;-0.50;99.90;;;;;;5025149;28;20084;-83
2022/04/11 01:12:58;;;;;;;14.17;6.63;;;-0.60;99.90;;;;;;5010732;28;20038;-83
2022/04/11 01:15:24;;;;;;;11.93;7.00;;;-0.40;99.90;;;;;;5009854;28;20095;-83
2022/04/11 01:17:50;;;;;;;10.80;6.13;;;-0.60;99.90;;;;;;4997276;28;20045;-83
2022/04/11 01:20:19;;;;;;;11.97;6.47;;;-0.60;99.90;;;;;;5011906;28;20037;-85
2022/04/11 01:22:46;;;;;;;10.30;5.77;;;-0.70;99.90;;;;;;4981705;28;20468;-85
2022/04/11 01:25:12;;;;;;;10.27;5.70;;;-0.60;99.90;;;;;;5014467;28;20067;-85
2022/04/11 01:27:38;;;;;;;12.70;6.20;;;-0.60;99.90;;;;;;5012475;28;20041;-85
2022/04/11 01:30:06;;;;;;;15.63;5.90;;;-0.60;99.90;;;;;;5010182;28;20038;-85
2022/04/11 01:32:33;;;;;;;9.70;5.73;;;-0.70;99.90;;;;;;5011099;28;20038;-85
2022/04/11 01:34:58;;;;;;;11.30;5.60;;;-0.70;99.90;;;;;;5025175;28;20045;-79
2022/04/11 01:37:24;;;;;;;10.20;5.23;;;-0.80;99.90;;;;;;5029282;28;20041;-78
2022/04/11 01:39:50;;;;;;;9.57;5.40;;;-0.80;99.90;;;;;;5028199;28;20084;-79
2022/04/11 01:42:16;;;;;;;9.10;5.37;;;-0.80;99.90;;;;;;5029215;28;20124;-79
2022/04/11 01:44:42;;;;;;;9.33;5.53;;;-0.70;99.90;;;;;;5027432;28;20124;-79
2022/04/11 01:47:07;;;;;;;11.10;4.60;;;0.90;99.90;;;;;;5027730;28;20044;-79
2022/04/11 01:49:33;;;;;;;10.03;4.80;;;-0.70;99.90;;;;;;4993318;28;20393;-79
2022/04/11 01:51:59;;;;;;;8.60;4.90;;;-0.60;99.90;;;;;;5014442;28;20092;-79
2022/04/11 01:54:25;;;;;;;10.63;4.67;;;-0.70;99.90;;;;;;5015509;28;20574;-79
2022/04/11 01:56:50;;;;;;;9.97;4.43;;;-0.70;99.90;;;;;;5014171;28;20060;-79
2022/04/11 01:59:16;;;;;;;9.50;4.07;;;-0.70;99.90;;;;;;5015537;28;20037;-79
2022/04/11 02:01:43;;;;;;;8.10;4.17;;;-0.70;99.90;;;;;;5015850;28;20050;-79
2022/04/11 02:04:09;;;;;;;9.43;4.20;;;-1.00;99.90;;;;;;5030946;28;20045;-79
2022/04/11 02:06:35;;;;;;;8.53;3.90;;;-0.80;99.90;;;;;;4997656;28;20037;-79
2022/04/11 02:09:01;;;;;;;6.73;3.83;;;-1.00;99.90;;;;;;5032510;28;20044;-86
2022/04/11 02:11:26;;;;;;;9.80;4.60;;;-0.70;99.90;;;;;;5012847;28;20033;-86
2022/04/11 02:13:52;;;;;;;10.40;4.00;;;-0.70;99.90;;;;;;5028556;28;20041;-85
2022/04/11 02:16:18;;;;;;;7.60;3.93;;;0.00;99.90;;;;;;5014558;28;20091;-86
2022/04/11 02:18:43;;;;;;;7.53;4.10;;;-0.70;99.90;;;;;;5016599;28;20040;-86
2022/04/11 02:21:09;;;;;;;7.37;4.30;;;-0.60;99.90;;;;;;5016879;28;20125;-86
2022/04/11 02:23:35;;;;;;;6.23;3.70;;;-0.60;99.90;;;;;;5000597;28;20037;-86
2022/04/11 02:26:02;;;;;;;8.23;4.37;;;-0.60;99.90;;;;;;5016764;28;20391;-84
2022/04/11 02:28:28;;;;;;;9.53;4.17;;;-0.80;99.90;;;;;;5032528;28;20380;-83
2022/04/11 02:30:54;;;;;;;6.73;3.47;;;-0.60;99.90;;;;;;4999160;28;20120;-83
2022/04/11 02:33:19;;;;;;;8.27;3.83;;;-0.60;99.90;;;;;;5032557;28;20141;-83
2022/04/11 02:35:45;;;;;;;8.47;4.00;;;-0.90;99.90;;;;;;5014569;28;20076;-83
2022/04/11 02:38:11;;;;;;;9.97;4.40;;;-0.70;99.90;;;;;;5016436;28;20041;-83
2022/04/11 02:40:37;;;;;;;8.97;3.33;;;-0.70;99.90;;;;;;5015320;28;20048;-83
2022/04/11 02:43:02;;;;;;;9.30;4.73;;;0.60;99.90;;;;;;5031754;28;20094;-83
2022/04/11 02:45:28;;;;;;;9.40;4.23;;;-0.60;99.90;;;;;;5016506;28;20037;-84
2022/04/11 02:47:54;;;;;;;6.43;3.83;;;-0.70;99.90;;;;;;5032396;28;20364;-83
2022/04/11 02:50:19;;;;;;;10.27;4.27;;;-0.70;99.90;;;;;;4999858;28;20124;-83
2022/04/11 02:52:46;;;;;;;9.33;4.60;;;-0.70;99.90;;;;;;5028532;28;20036;-83
2022/04/11 02:55:12;;;;;;;6.47;3.70;;;-0.80;99.90;;;;;;5015936;28;20167;-83
2022/04/11 02:57:38;;;;;;;10.23;4.37;;;-0.80;99.90;;;;;;5029921;28;20124;-83
2022/04/11 03:00:11;;;;;;;7.13;4.27;;;-0.80;99.90;;;;;;5026265;28;20049;-84
2022/04/11 03:02:36;;;;;;;10.30;3.80;;;-0.80;99.90;;;;;;5045479;28;20041;-83
2022/04/11 03:05:02;;;;;;;9.50;4.37;;;-0.90;99.90;;;;;;5030788;28;20033;-83
2022/04/11 03:07:28;;;;;;;8.70;3.93;;;-0.90;99.90;;;;;;5015864;28;20487;-84
2022/04/11 03:09:55;;;;;;;8.60;3.63;;;-0.90;99.90;;;;;;4981163;28;20108;-83
2022/04/11 03:12:21;;;;;;;8.57;4.47;;;-0.90;99.90;;;;;;5008977;28;20041;-84
2022/04/11 03:14:50;;;;;;;7.40;3.90;;;-1.20;99.90;;;;;;5030700;28;20388;-81
2022/04/11 03:17:16;;;;;;;8.33;4.20;;;-0.90;99.90;;;;;;5029579;28;20033;-80
2022/04/11 03:19:43;;;;;;;8.73;4.40;;;-0.30;99.90;;;;;;5031722;28;20041;-80
2022/04/11 03:22:12;;;;;;;10.10;4.23;;;-0.80;99.90;;;;;;5011536;28;20111;-80
2022/04/11 03:24:38;;;;;;;10.03;4.50;;;-0.80;99.90;;;;;;5015552;28;20395;-80
2022/04/11 03:27:04;;;;;;;9.73;4.67;;;-0.70;99.90;;;;;;5029669;28;20041;-80
2022/04/11 03:29:30;;;;;;;8.83;4.90;;;-0.70;99.90;;;;;;5028889;28;20041;-80
2022/04/11 03:31:56;;;;;;;8.07;4.33;;;0.20;99.90;;;;;;5013966;28;20125;-85
2022/04/11 03:34:22;;;;;;;9.30;4.80;;;-0.50;99.90;;;;;;4998115;28;20160;-86
2022/04/11 03:36:48;;;;;;;7.40;4.13;;;-0.20;99.90;;;;;;5012905;28;20128;-86
2022/04/11 03:39:14;;;;;;;9.50;4.17;;;-0.20;99.90;;;;;;5030224;28;20129;-86
2022/04/11 03:41:43;;;;;;;6.30;4.03;;;-0.70;99.90;;;;;;5027492;28;20041;-85
2022/04/11 03:44:10;;;;;;;9.97;4.37;;;1.20;99.90;;;;;;5014577;28;20120;-85
2022/04/11 03:46:39;;;;;;;8.93;4.30;;;-0.10;99.90;;;;;;5014269;28;20038;-85
2022/04/11 03:49:06;;;;;;;6.17;3.90;;;-0.10;99.90;;;;;;5028617;28;20033;-84
2022/04/11 03:51:32;;;;;;;10.13;4.10;;;0.10;99.90;;;;;;5031117;28;20080;-83
2022/04/11 03:53:58;;;;;;;6.53;3.70;;;0.10;99.90;;;;;;5015249;28;20124;-83
2022/04/11 03:56:24;;;;;;;8.90;4.17;;;0.20;99.90;;;;;;4995450;28;20045;-83
2022/04/11 03:58:50;;;;;;;8.77;4.10;;;0.00;99.90;;;;;;5029691;28;20041;-83
2022/04/11 04:01:16;;;;;;;8.83;4.40;;;1.60;99.90;;;;;;5010528;28;20091;-83
2022/04/11 04:03:42;;;;;;;6.10;3.70;;;0.20;99.90;;;;;;5012493;28;20045;-84
2022/04/11 04:06:08;;;;;;;10.40;4.00;;;0.50;99.90;;;;;;4999760;28;20033;-80
2022/04/11 04:08:33;;;;;;;7.73;4.30;;;0.70;99.90;;;;;;5010218;28;20497;-80
2022/04/11 04:10:59;;;;;;;7.53;4.10;;;0.40;99.90;;;;;;4995457;28;20128;-80
2022/04/11 04:13:25;;;;;;;8.57;4.10;;;0.80;99.90;;;;;;5029179;28;20041;-80
2022/04/11 04:15:50;;;;;;;6.63;3.63;;;0.60;99.90;;;;;;5013735;28;20037;-80
2022/04/11 04:18:17;;;;;;;6.87;3.43;;;0.60;99.90;;;;;;5010939;28;20068;-80
2022/04/11 04:20:42;;;;;;;8.27;3.57;;;0.60;99.90;;;;;;5028115;28;20109;-80
2022/04/11 04:23:08;;;;;;;8.97;3.40;;;0.50;99.90;;;;;;5029444;28;20140;-85
2022/04/11 04:25:35;;;;;;;8.93;3.57;;;0.60;99.90;;;;;;4995482;28;20387;-85
2022/04/11 04:28:01;;;;;;;10.30;3.60;;;0.60;99.90;;;;;;5011329;28;20037;-85
2022/04/11 04:30:28;;;;;;;5.63;3.20;;;0.70;99.90;;;;;;5012844;28;20072;-85
2022/04/11 04:32:55;;;;;;;7.47;3.50;;;0.80;99.90;;;;;;5030918;28;20053;-84
2022/04/11 04:35:21;;;;;;;6.83;3.40;;;0.90;99.90;;;;;;5014178;28;20052;-85
2022/04/11 04:37:47;;;;;;;5.57;3.33;;;1.70;99.90;;;;;;5012044;28;20029;-85
2022/04/11 04:40:13;;;;;;;7.93;3.90;;;;;;;;;;5013886;28;20175;-83
2022/04/11 04:42:39;;;;;;;6.57;3.27;;;1.00;99.90;;;;;;5031243;28;20045;-83
2022/04/11 04:45:06;;;;;;;6.43;3.70;;;1.00;99.90;;;;;;5014137;28;20038;-83
2022/04/11 04:47:32;;;;;;;7.03;3.53;;;1.00;99.90;;;;;;5030545;28;20033;-83
2022/04/11 04:49:58;;;;;;;6.20;3.90;;;2.80;99.90;;;;;;5030371;28;20391;-83
2022/04/11 04:52:24;;;;;;;11.33;3.63;;;1.10;99.90;;;;;;5029202;28;20034;-83
2022/04/11 04:54:49;;;;;;;8.00;3.77;;;1.10;99.90;;;;;;4997451;28;20037;-85
2022/04/11 04:57:15;;;;;;;8.47;3.60;;;1.20;99.90;;;;;;5013692;28;20044;-85
2022/04/11 04:59:41;;;;;;;10.83;3.93;;;1.30;99.90;;;;;;5030495;28;20037;-85
2022/04/11 05:02:07;;;;;;;8.07;3.87;;;1.30;99.90;;;;;;4996903;28;20100;-85
2022/04/11 05:04:32;;;;;;;7.63;3.50;;;1.30;99.90;;;;;;4996469;28;20115;-85
2022/04/11 05:06:58;;;;;;;6.90;3.37;;;2.00;99.90;;;;;;5013641;28;20037;-85
2022/04/11 05:09:24;;;;;;;9.90;3.80;;;2.70;99.90;;;;;;5013543;28;20037;-85
2022/04/11 05:11:50;;;;;;;6.50;3.33;;;1.50;99.90;;;;;;5008976;28;20037;-84
2022/04/11 05:14:15;;;;;;;6.60;3.50;;;1.50;99.90;;;;;;5030007;28;20395;-84
2022/04/11 05:16:41;;;;;;;6.20;3.27;;;1.60;99.90;;;;;;5028179;28;20052;-84
2022/04/11 05:19:07;;;;;;;7.57;3.47;;;2.10;99.90;;;;;;5014724;28;20494;-83
2022/04/11 05:21:32;;;;;;;10.23;3.53;;;1.90;99.90;;;;;;5013262;28;20049;-83
2022/04/11 05:23:58;;;;;;;8.23;3.90;;;1.70;99.90;;;;;;5013708;28;20056;-83
2022/04/11 05:26:24;;;;;;;6.40;3.40;;;1.80;99.90;;;;;;5012916;28;20506;-83
2022/04/11 05:28:49;;;;;;;8.53;3.60;;;1.80;99.90;;;;;;5027005;28;20117;-79
2022/04/11 05:31:16;;;;;;;8.23;3.43;;;1.80;99.90;;;;;;5028929;28;20044;-79
2022/04/11 05:33:42;;;;;;;7.03;3.20;;;1.90;99.90;;;;;;5015792;28;20200;-79
2022/04/11 05:36:08;;;;;;;5.00;3.07;;;2.20;99.90;;;;;;5022479;28;20542;-79
2022/04/11 05:38:34;;;;;;;9.32;3.90;;;2.00;99.90;;;;;;5036702;28;20395;-79
2022/04/11 05:41:00;;;;;;;8.77;3.30;;;2.00;99.90;;;;;;5026005;28;20386;-80
2022/04/11 05:43:25;;;;;;;9.40;3.60;;;2.10;99.90;;;;;;5028469;28;20052;-79
2022/04/11 05:45:51;;;;;;;7.60;3.10;;;2.10;99.90;;;;;;5027936;28;20030;-84
2022/04/11 05:48:17;;;;;;;8.23;3.40;;;2.20;99.90;;;;;;5027824;28;20041;-85
2022/04/11 05:50:42;;;;;;;7.95;3.80;;;2.20;99.90;;;;;;5012228;28;20132;-85
2022/04/11 05:53:08;;;;;;;8.17;3.40;;;2.40;99.90;;;;;;5025402;28;20045;-85
2022/04/11 05:55:34;;;;;;;9.60;3.60;;;2.40;99.90;;;;;;5010709;28;20041;-85
2022/04/11 05:58:00;;;;;;;8.20;3.80;;;2.40;99.90;;;;;;5025441;28;20092;-84
2022/04/11 06:00:26;;;;;;;6.47;3.67;;;2.50;99.90;;;;;;5010177;28;20512;-84
2022/04/11 06:02:52;;;;;;;8.53;3.40;;;2.60;99.90;;;;;;5010338;28;21547;-79
2022/04/11 06:05:18;;;;;;;6.87;3.60;;;2.80;99.90;;;;;;5031845;28;20503;-79
2022/04/11 06:07:44;;;;;;;8.20;3.92;;;2.60;99.90;;;;;;4996991;28;20072;-79
2022/04/11 06:10:10;;;;;;;8.53;3.60;;;3.50;99.90;;;;;;5012203;28;20046;-80
2022/04/11 06:12:36;;;;;;;8.10;3.42;;;2.80;99.90;;;;;;5012077;28;20384;-79
2022/04/11 06:15:03;;;;;;;8.32;3.40;;;2.80;99.90;;;;;;5029359;28;20037;-79
2022/04/11 06:17:29;;;;;;;8.23;3.58;;;2.90;99.90;;;;;;5026331;28;20049;-79
2022/04/11 06:19:57;;;;;;;7.73;3.40;;;2.90;99.90;;;;;;5013479;28;20068;-82
2022/04/11 06:22:23;;;;;;;8.07;3.40;;;3.00;99.90;;;;;;5026177;28;20033;-82
2022/04/11 06:24:50;;;;;;;9.43;3.85;;;3.10;99.90;;;;;;5026889;28;20113;-82
2022/04/11 06:27:17;;;;;;;8.32;3.80;;;3.10;99.90;;;;;;5030300;28;20045;-82
2022/04/11 06:29:43;;;;;;;7.10;3.58;;;3.20;99.90;;;;;;5027250;28;20068;-82
2022/04/11 06:32:10;;;;;;;5.90;3.45;;;3.70;99.90;;;;;;5025248;28;20048;-83
2022/04/11 06:34:37;;;;;;;6.75;3.83;;;3.40;99.90;;;;;;5008367;28;20411;-83
2022/04/11 06:37:03;;;;;;;7.05;3.53;;;3.40;99.90;;;;;;5006936;28;20035;-79
2022/04/11 06:39:29;;;;;;;6.68;3.60;;;3.50;99.90;;;;;;5027027;28;20067;-79
2022/04/11 06:41:55;;;;;;;7.20;3.70;;;4.00;99.90;;;;;;5034025;28;20041;-79
2022/04/11 06:44:21;;;;;;;8.88;4.13;;;3.70;99.90;;;;;;5037692;28;20372;-79
2022/04/11 06:46:47;;;;;;;6.47;3.63;;;4.90;99.90;;;;;;5022570;28;20042;-79
2022/04/11 06:49:12;;;;;;;6.53;3.47;;;3.90;99.90;;;;;;5031578;28;20443;-79
2022/04/11 06:51:38;;;;;;;9.02;3.85;;;3.90;99.90;;;;;;5016147;28;20132;-79
2022/04/11 06:54:04;;;;;;;8.02;3.92;;;4.00;99.90;;;;;;5014978;28;20495;-79
2022/04/11 06:56:30;;;;;;;6.05;3.30;;;4.50;99.90;;;;;;5031581;28;20037;-79
2022/04/11 06:58:56;;;;;;;10.50;3.92;;;4.30;99.90;;;;;;5015329;28;20131;-80
2022/04/11 07:01:22;;;;;;;7.10;3.67;;;4.30;99.90;;;;;;5031508;28;20072;-80
2022/04/11 07:03:48;;;;;;;10.05;4.03;;;4.40;99.90;;;;;;5028710;28;20135;-80
2022/04/11 07:06:13;;;;;;;6.88;3.63;;;4.60;99.90;;;;;;4989793;28;20038;-80
2022/04/11 07:08:39;;;;;;;7.93;3.50;;;4.70;99.90;;;;;;5035820;28;20532;-82
2022/04/11 07:11:06;;;;;;;11.82;3.90;;;4.80;99.90;;;;;;5030858;28;20099;-82
2022/04/11 07:13:33;;;;;;;11.27;3.65;;;5.40;99.90;;;;;;5045823;28;20067;-82
2022/04/11 07:15:59;;;;;;;11.32;3.67;;;5.30;99.90;;;;;;5030912;28;20053;-82
2022/04/11 07:18:27;;;;;;;9.30;4.10;;;5.30;99.90;;;;;;5015988;28;20422;-82
2022/04/11 07:20:56;;;;;;;7.22;3.67;;;5.40;99.90;;;;;;5030748;28;20045;-83
2022/04/11 07:23:22;;;;;;;10.18;3.75;;;5.50;99.90;;;;;;5012894;28;20479;-83
2022/04/11 07:25:47;;;;;;;9.15;3.92;;;5.70;99.90;;;;;;5035298;28;20040;-80
2022/04/11 07:28:13;;;;;;;8.57;3.72;;;5.80;99.90;;;;;;5028920;28;20427;-79
2022/04/11 07:30:39;;;;;;;8.07;3.40;;;5.90;99.90;;;;;;5030799;28;20033;-80
2022/04/11 07:33:06;;;;;;;7.20;3.47;;;6.00;99.90;;;;;;5011849;28;20037;-79
2022/04/11 07:35:32;;;;;;;7.43;3.35;;;6.10;99.90;;;;;;5012064;28;20515;-79
2022/04/11 07:37:58;;;;;;;8.30;3.70;;;6.20;99.90;;;;;;5015029;28;20526;-80
2022/04/11 07:40:30;;;;;;;7.80;3.45;;;6.30;99.90;;;;;;5002195;28;20033;-80
2022/04/11 07:42:56;;;;;;;9.00;3.30;;;7.80;99.90;;;;;;5026021;28;20513;-80
2022/04/11 07:45:23;;;;;;;5.70;3.30;;;6.80;99.90;;;;;;5022588;28;20068;-80
2022/04/11 07:47:49;;;;;;;8.88;3.53;;;6.70;99.90;;;;;;5031489;28;20061;-80
2022/04/11 07:50:15;;;;;;;9.40;3.47;;;6.90;99.90;;;;;;5029548;28;20041;-80
2022/04/11 07:52:42;;;;;;;8.82;3.70;;;7.00;99.90;;;;;;5025329;28;20502;-80
2022/04/11 07:55:11;;;;;;;6.35;3.60;;;7.20;99.90;;;;;;5028680;28;20037;-80
2022/04/11 07:57:37;;;;;;;11.13;3.53;;;7.40;99.90;;;;;;5029037;28;20049;-80
2022/04/11 08:00:07;;;;;;;5.95;3.35;;;7.70;99.90;;;;;;5030822;28;20481;-80
2022/04/11 08:02:33;;;;;;;5.15;3.15;;;8.00;99.90;;;;;;5028352;28;20049;-80
2022/04/11 08:05:05;;;;;;;6.13;3.00;;;8.40;99.90;;;;;;5027739;28;20526;-80
2022/04/11 08:07:34;;;;;;;6.40;3.08;;;9.00;99.90;;;;;;5028033;28;20036;-80
2022/04/11 08:10:09;;;;;;;8.38;3.22;;;9.40;99.90;;;;;;5015202;28;20067;-80
2022/04/11 08:12:35;;;;;;;7.07;2.90;;;9.90;99.90;;;;;;5013681;28;20125;-80
2022/04/11 08:15:01;;;;;;;6.80;3.00;;;10.40;99.90;;;;;;5028502;28;20172;-80
2022/04/11 08:17:26;;;;;;;8.73;2.72;;;10.90;99.90;;;;;;5013427;28;20115;-80
2022/04/11 08:19:52;;;;;;;7.22;3.13;;;11.40;99.90;;;;;;5014567;28;20053;-80
2022/04/11 08:22:18;;;;;;;6.50;2.60;;;12.50;99.90;;;;;;4996841;28;20072;-80
2022/04/11 08:24:44;;;;;;;6.43;2.85;;;13.60;99.90;;;;;;5031114;28;20037;-81
2022/04/11 08:27:10;;;;;;;5.20;2.78;;;14.80;99.90;;;;;;5013944;28;20048;-80
2022/04/11 08:29:36;;;;;;;5.28;2.80;;;16.00;99.90;;;;;;5028656;28;20038;-80
2022/04/11 08:32:02;;;;;;;6.55;2.80;;;17.30;99.90;;;;;;5030796;28;20132;-81
2022/04/11 08:34:28;;;;;;;5.93;2.47;;;18.20;97.80;;;;;;5024387;28;20195;-81
2022/04/11 08:36:53;;;;;;;5.45;2.60;;;18.80;94.60;;;;;;5014294;28;20099;-81
2022/04/11 08:39:19;;;;;;;4.78;2.30;;;19.60;90.80;;;;;;5008911;28;20037;-81
2022/04/11 08:41:45;;;;;;;4.88;2.30;;;20.10;90.60;;;;;;5007645;28;20092;-81
2022/04/11 08:44:12;;;;;;;5.80;2.40;;;20.50;79.20;;;;;;5011445;28;20068;-81
2022/04/11 08:46:38;;;;;;;6.25;2.38;;;21.00;75.60;;;;;;5037040;28;20060;-81
2022/04/11 08:49:08;;;;;;;5.90;2.45;;;21.10;71.20;;;;;;5036176;22;20482;-80
2022/04/11 08:51:35;;;;;;;4.28;2.17;;;21.50;67.80;;;;;;5037372;28;20049;-79
2022/04/11 08:54:03;;;;;;;6.93;2.67;;;21.70;68.00;;;;;;5015191;28;20037;-80
2022/04/11 08:56:29;;;;;;;5.18;2.20;;;22.10;66.50;;;;;;5030014;28;20037;-84
2022/04/11 08:58:55;;;;;;;5.40;2.28;;;21.10;62.80;;;;;;5014574;28;20087;-80
2022/04/11 09:01:21;;;;;;;5.72;1.83;;;21.70;62.50;;;;;;5031267;28;20041;-79
2022/04/11 09:03:48;;;;;;;3.83;1.95;;;22.30;63.70;;;;;;5014800;28;20084;-80
2022/04/11 09:06:15;;;;;;;5.60;2.00;;;22.70;62.50;;;;;;5031333;28;20387;-83
2022/04/11 09:08:58;;;;;;;4.07;1.95;;;23.00;60.90;;;;;;4998607;28;20038;-83
2022/04/11 09:11:29;;;;;;;6.47;2.00;;;23.20;60.20;;;;;;5030248;28;20037;-83
2022/04/11 09:13:56;;;;;;;3.95;1.90;;;23.40;58.40;;;;;;5014345;28;20049;-84
2022/04/11 09:16:22;;;;;;;4.93;1.90;;;22.40;50.60;;;;;;5013834;28;20042;-83
2022/04/11 09:18:53;;;;;;;4.45;1.77;;;22.70;51.60;;;;;;5015644;28;20060;-84
2022/04/11 09:21:20;;;;;;;5.55;1.77;;;22.40;49.30;;;;;;5029741;28;20091;-84
2022/04/11 09:23:47;;;;;;;4.63;1.60;;;21.70;47.90;;;;;;5030094;28;20056;-83
2022/04/11 09:26:19;;;;;;;5.25;1.52;;;21.80;48.80;;;;;;5006161;28;20361;-84
2022/04/11 09:29:00;;;;;;;2.70;1.58;;;21.60;49.20;;;;;;5025709;28;20034;-83
2022/04/11 09:31:26;;;;;;;6.60;1.90;;;21.80;49.40;;;;;;5024065;28;20045;-84
2022/04/11 09:33:51;;;;;;;4.03;1.52;;;22.30;50.50;;;;;;5032285;28;20048;-83
2022/04/11 09:36:20;;;;;;;4.43;1.65;;;23.10;47.90;;;;;;5035359;28;20041;-83
2022/04/11 09:38:59;;;;;;;4.82;2.00;;;24.00;49.20;;;;;;5015151;28;20044;-80
2022/04/11 09:41:29;;;;;;;4.50;2.15;;;24.20;46.70;;;;;;5030308;28;20034;-80
2022/04/11 09:43:56;;;;;;;3.22;1.98;;;24.40;46.10;;;;;;5029549;28;20117;-80
2022/04/11 09:46:22;;;;;;;4.22;2.28;;;22.80;44.30;;;;;;5014168;28;20037;-80
2022/04/11 09:48:52;;;;;;;3.90;1.92;;;23.20;44.30;;;;;;5015175;28;20044;-80
2022/04/11 09:51:17;;;;;;;4.55;2.28;;;23.40;47.10;;;;;;5014912;28;20045;-80
2022/04/11 09:53:44;;;;;;;5.20;2.00;;;23.70;45.30;;;;;;5014024;28;20148;-79
2022/04/11 09:56:10;;;;;;;7.57;2.67;;;23.30;46.30;;;;;;5030503;28;20067;-83
2022/04/11 09:58:38;;;;;;;238.65;27.52;;;24.00;47.30;;;;;;5015339;28;20080;-84
2022/04/11 10:01:04;;;;;;;11.68;3.92;;;24.10;47.80;;;;;;5013083;28;20041;-84
2022/04/11 10:03:31;;;;;;;68.72;13.65;;;24.70;47.50;;;;;;5014639;28;20041;-84
2022/04/11 10:05:58;;;;;;;32.35;8.40;;;25.00;46.70;;;;;;5027127;28;20056;-86
2022/04/11 10:08:25;;;;;;;11.32;3.88;;;25.00;46.10;;;;;;5026087;28;20081;-85
2022/04/11 10:10:52;;;;;;;6.15;2.60;;;24.30;44.60;;;;;;5042947;28;20045;-85
2022/04/11 10:13:18;;;;;;;6.85;2.47;;;24.30;45.60;;;;;;5024493;28;20042;-84
2022/04/11 10:15:51;;;;;;;6.50;2.35;;;23.50;45.50;;;;;;5044509;28;20040;-84
2022/04/11 10:18:28;;;;;;;4.93;2.33;;;23.40;45.10;;;;;;5043277;28;20060;-84
2022/04/11 10:21:01;;;;;;;5.25;2.67;;;23.70;46.80;;;;;;5024889;28;20395;-84
2022/04/11 10:24:06;;;;;;;5.95;2.80;;;24.20;47.00;;;;;;5025099;28;20049;-85
2022/04/11 10:26:49;;;;;;;6.72;2.63;;;24.50;44.90;;;;;;5030646;28;20049;-84
2022/04/11 10:29:34;;;;;;;4.60;2.13;;;24.90;44.10;;;;;;5033169;28;20850;-84
2022/04/11 10:32:08;;;;;;;4.35;2.58;;;24.90;45.30;;;;;;5032888;28;20515;-84
2022/04/11 10:34:58;;;;;;;5.57;2.50;;;24.60;42.90;;;;;;5016472;28;20045;-84
2022/04/11 10:37:49;;;;;;;4.70;2.42;;;25.10;45.90;;;;;;5016460;28;20121;-84
2022/04/11 10:40:19;;;;;;;4.97;2.30;;;25.40;45.20;;;;;;5029196;28;20396;-84
2022/04/11 10:43:00;;;;;;;5.20;2.30;;;25.60;45.00;;;;;;5016161;28;20045;-84
2022/04/11 10:45:39;;;;;;;4.55;2.30;;;25.80;44.90;;;;;;5041970;28;20060;-82
2022/04/11 10:48:05;;;;;;;5.95;2.30;;;26.20;44.40;;;;;;5047524;28;20052;-82
2022/04/11 10:50:35;;;;;;;6.63;2.75;;;26.00;45.30;;;;;;5017134;28;20049;-82
2022/04/11 10:53:10;;;;;;;4.25;2.40;;;25.60;43.70;;;;;;5030702;28;20053;-82
2022/04/11 10:55:53;;;;;;;4.43;2.72;;;25.20;44.00;;;;;;5030941;28;20045;-82
2022/04/11 10:58:37;;;;;;;5.30;2.90;;;24.90;45.10;;;;;;5029662;28;20504;-82
2022/04/11 11:01:03;;;;;;;5.47;2.50;;;24.40;43.60;;;;;;5032083;28;20046;-82
2022/04/11 11:03:29;;;;;;;4.78;2.40;;;24.40;45.70;;;;;;5009645;28;20088;-82
2022/04/11 11:05:55;;;;;;;7.28;2.55;;;24.70;44.50;;;;;;4994443;28;20431;-81
2022/04/11 11:08:23;;;;;;;5.85;2.40;;;24.70;44.50;;;;;;5012487;28;20099;-81
2022/04/11 11:10:54;;;;;;;4.50;2.53;;;24.60;44.20;;;;;;5016275;28;20128;-83
2022/04/11 11:13:38;;;;;;;5.03;2.80;;;24.40;43.00;;;;;;5028506;28;20116;-81
2022/04/11 11:16:03;;;;;;;5.28;2.70;;;24.60;41.80;;;;;;5016620;28;20037;-81
2022/04/11 11:18:48;;;;;;;7.38;2.85;;;24.80;44.60;;;;;;5029447;28;20033;-81
2022/04/11 11:21:15;;;;;;;4.53;2.47;;;25.30;42.60;;;;;;5032776;28;20550;-81
2022/04/11 11:23:42;;;;;;;6.85;2.70;;;25.30;43.40;;;;;;5034122;28;20269;-82
2022/04/11 11:26:09;;;;;;;5.43;2.97;;;25.70;44.10;;;;;;5015264;28;20034;-81
2022/04/11 11:28:35;;;;;;;5.85;2.80;;;25.70;43.10;;;;;;5034406;28;20049;-81
2022/04/11 11:31:01;;;;;;;7.35;2.70;;;26.20;43.70;;;;;;5019364;28;20361;-82
2022/04/11 11:33:27;;;;;;;5.15;2.90;;;26.30;43.70;;;;;;5017358;28;20095;-82
2022/04/11 11:35:55;;;;;;;6.35;2.75;;;26.10;41.60;;;;;;5029367;28;20419;-82
2022/04/11 11:38:26;;;;;;;5.00;2.50;;;26.10;43.70;;;;;;5041003;28;20045;-82
2022/04/11 11:40:55;;;;;;;5.10;2.70;;;25.60;40.90;;;;;;5040146;28;20068;-81
2022/04/11 11:43:21;;;;;;;5.43;2.75;;;24.80;41.80;;;;;;5040462;28;20482;-81
2022/04/11 11:45:48;;;;;;;7.18;3.13;;;24.90;43.50;;;;;;5042929;28;20403;-81
2022/04/11 11:48:31;;;;;;;5.85;3.38;;;23.40;43.40;;;;;;5018534;28;20091;-81
2022/04/11 11:50:59;;;;;;;6.70;3.15;;;23.70;42.60;;;;;;5049104;28;20425;-81
2022/04/11 11:53:26;;;;;;;6.32;3.45;;;23.10;42.40;;;;;;5030467;28;20075;-81
2022/04/11 11:55:57;;;;;;;8.07;3.45;;;22.90;44.30;;;;;;5026746;28;20510;-80
2022/04/11 11:58:37;;;;;;;5.38;3.15;;;22.90;44.60;;;;;;5046941;28;20094;-81
2022/04/11 12:01:10;;;;;;;5.88;3.00;;;24.10;43.80;;;;;;5039132;28;20037;-81
2022/04/11 12:06:24;;;;;;;8.90;3.30;;;25.00;43.90;;;;;;5010219;28;20037;-81
2022/04/11 12:09:03;;;;;;;5.85;3.40;;;25.00;43.90;;;;;;5010812;28;20041;-85
2022/04/11 12:11:30;;;;;;;5.60;3.25;;;25.30;43.90;;;;;;5012061;28;20068;-84
2022/04/11 12:14:01;;;;;;;6.13;3.20;;;25.00;42.30;;;;;;5045606;28;20120;-84
2022/04/11 12:16:29;;;;;;;6.20;3.13;;;24.80;42.30;;;;;;5039386;28;20037;-85
2022/04/11 12:18:56;;;;;;;6.22;3.42;;;24.50;44.20;;;;;;5021071;28;20107;-84
2022/04/11 12:21:44;;;;;;;5.88;3.10;;;24.60;43.40;;;;;;5019712;28;20487;-85
2022/04/11 12:24:11;;;;;;;7.40;3.20;;;23.80;43.70;;;;;;5023692;28;20060;-84
2022/04/11 12:26:46;;;;;;;6.07;2.80;;;24.20;42.30;;;;;;5045921;28;20025;-81
2022/04/11 12:29:19;;;;;;;4.97;2.95;;;24.00;45.00;;;;;;5043452;28;20041;-85
2022/04/11 12:31:59;;;;;;;5.90;2.95;;;24.30;45.10;;;;;;4998695;28;20450;-81
2022/04/11 12:34:39;;;;;;;7.68;3.47;;;24.90;46.70;;;;;;5035701;28;20041;-81
2022/04/11 12:37:07;;;;;;;10.15;3.97;;;25.30;44.80;;;;;;5024679;28;20052;-81
2022/04/11 12:40:06;;;;;;;7.53;3.25;;;25.20;43.00;;;;;;5035407;28;20050;-81
2022/04/11 12:42:35;;;;;;;6.75;3.42;;;25.40;43.90;;;;;;5024929;28;20033;-81
2022/04/11 12:45:03;;;;;;;6.28;3.30;;;25.40;44.30;;;;;;5045795;28;20102;-81
2022/04/11 12:47:29;;;;;;;7.00;3.55;;;25.00;43.80;;;;;;5026983;28;20036;-81
2022/04/11 12:49:54;;;;;;;6.88;3.40;;;24.20;44.30;;;;;;5023968;28;20045;-81
2022/04/11 12:52:22;;;;;;;7.13;3.75;;;23.10;45.50;;;;;;5008513;28;20815;-81
2022/04/11 12:54:48;;;;;;;6.82;3.53;;;21.70;45.00;;;;;;5023143;28;20049;-81